createdAt,value
2022-11-03T00:03:17.257Z,75584.56
2022-11-03T00:13:19.468Z,75614.94
2022-11-03T00:23:21.568Z,75633.13
2022-11-03T00:33:27.013Z,75645.28
2022-11-03T00:43:35.045Z,75665.53
2022-11-03T00:53:43.656Z,75693.84
2022-11-03T01:04:09.479Z,75710.03
2022-11-03T01:14:19.128Z,75728.25
2022-11-03T01:24:26.052Z,75742.41
2022-11-03T01:34:31.904Z,75742.41
2022-11-03T01:44:36.213Z,75758.63
2022-11-03T01:54:43.962Z,75760.63
2022-11-03T02:04:46.142Z,75766.72
2022-11-03T02:14:59.309Z,75762.66
2022-11-03T02:25:23.294Z,75774.81
2022-11-03T02:35:33.715Z,75788.97
2022-11-03T02:45:37.935Z,75803.13
2022-11-03T02:55:41.695Z,75821.34
2022-11-03T03:05:45.698Z,75839.56
2022-11-03T03:15:53.869Z,75845.63
2022-11-03T03:26:05.928Z,75861.81
2022-11-03T03:36:12.399Z,75855.75
2022-11-03T03:46:17.570Z,75876.00
2022-11-03T03:56:23.681Z,75896.22
2022-11-03T04:06:29.016Z,75910.41
2022-11-03T04:16:54.819Z,75924.56
2022-11-03T04:27:12.743Z,75930.63
2022-11-03T04:37:19.141Z,75944.81
2022-11-03T04:47:21.350Z,75965.03
2022-11-03T04:57:23.630Z,75979.22
2022-11-03T05:07:34.890Z,75977.19
2022-11-03T05:17:37.721Z,75977.19
2022-11-03T05:27:45.205Z,75981.25
2022-11-03T05:37:49.447Z,75987.31
2022-11-03T05:47:55.115Z,75969.09
2022-11-03T05:58:00.466Z,75961.00
2022-11-03T06:08:18.637Z,75900.28
2022-11-03T06:18:25.029Z,75788.97
2022-11-03T06:28:32.663Z,75706.00
2022-11-03T06:38:35.965Z,75637.19
2022-11-03T06:48:39.358Z,75594.69
2022-11-03T06:58:42.855Z,75544.09
2022-11-03T07:08:54.852Z,75499.56
2022-11-03T07:19:11.720Z,75442.91
2022-11-03T07:29:23.669Z,75384.22
2022-11-03T07:39:35.573Z,75368.03
2022-11-03T07:49:40.494Z,75313.41
2022-11-03T07:59:44.820Z,75301.25
2022-11-03T08:09:46.851Z,75299.22
2022-11-03T08:19:51.199Z,75268.88
2022-11-03T08:29:56.980Z,75228.41
2022-11-03T08:40:01.282Z,75256.75
2022-11-03T08:50:13.923Z,75252.69
2022-11-03T09:00:23.163Z,75248.66
2022-11-03T09:10:29.986Z,75297.22
2022-11-03T09:20:39.001Z,75254.72
2022-11-03T09:30:44.958Z,75283.03
2022-11-03T09:40:51.792Z,75289.13
2022-11-03T09:50:58.112Z,75299.22
2022-11-03T10:01:04.001Z,75250.66
2022-11-03T10:11:09.879Z,75236.50
2022-11-03T10:21:38.190Z,75242.56
2022-11-03T10:31:42.107Z,75244.59
2022-11-03T10:41:58.664Z,75206.16
2022-11-03T10:52:19.715Z,75208.16
2022-11-03T11:02:25.326Z,75208.16
2022-11-03T11:12:31.822Z,75200.06
2022-11-03T11:22:34.106Z,75173.78
2022-11-03T11:32:44.831Z,75173.78
2022-11-03T11:43:05.866Z,75137.34
2022-11-03T11:53:11.534Z,75149.50
2022-11-03T12:03:17.932Z,75115.09
2022-11-03T12:13:53.978Z,75102.94
2022-11-03T12:23:55.996Z,75098.91
2022-11-03T12:34:01.159Z,75078.66
2022-11-03T12:44:05.975Z,75074.63
2022-11-03T12:54:08.483Z,75070.56
2022-11-03T13:04:10.779Z,75060.47
2022-11-03T13:14:15.109Z,75104.97
2022-11-03T13:24:19.455Z,75086.75
2022-11-03T13:34:24.205Z,75090.81
2022-11-03T13:44:27.342Z,75092.84
2022-11-03T14:04:52.059Z,75086.75
2022-11-03T14:14:56.194Z,75100.94
2022-11-03T14:25:02.205Z,75131.28
2022-11-03T14:35:08.260Z,75143.41
2022-11-03T14:45:17.706Z,75155.56
2022-11-03T14:55:24.644Z,75157.59
2022-11-03T15:05:48.494Z,75183.88
2022-11-03T15:15:53.240Z,75181.88
2022-11-03T15:25:57.808Z,75187.94
2022-11-03T15:36:04.641Z,75187.94
2022-11-03T15:46:10.398Z,75175.78
2022-11-03T15:56:14.707Z,75167.69
2022-11-03T16:06:19.039Z,75177.81
2022-11-03T16:16:21.057Z,75183.88
2022-11-03T16:26:24.418Z,75183.88
2022-11-03T16:36:26.479Z,75196.03
2022-11-03T16:46:30.014Z,75210.19
2022-11-03T16:56:39.983Z,75202.09
2022-11-03T17:06:42.025Z,75214.25
2022-11-03T17:16:46.866Z,75220.31
2022-11-03T17:26:58.194Z,75240.56
2022-11-03T17:37:00.682Z,75285.06
2022-11-03T17:47:02.646Z,75297.22
2022-11-03T17:57:07.393Z,75325.53
2022-11-03T18:07:30.269Z,75353.88
2022-11-03T18:17:37.368Z,75376.13
2022-11-03T18:27:39.725Z,75366.00
2022-11-03T18:37:44.354Z,75378.16
2022-11-03T18:47:52.231Z,75404.47
2022-11-03T18:57:56.749Z,75430.75
2022-11-03T19:08:02.773Z,75455.06
2022-11-03T19:18:08.720Z,75444.94
2022-11-03T19:28:18.751Z,75442.91
2022-11-03T19:38:26.970Z,75436.84
2022-11-03T19:48:35.768Z,75440.88
2022-11-03T19:58:37.759Z,75444.94
2022-11-03T20:08:47.649Z,75463.16
2022-11-03T20:18:57.559Z,75475.28
2022-11-03T20:29:11.834Z,75499.56
2022-11-03T20:39:14.725Z,75448.97
2022-11-03T20:49:18.997Z,75471.25
2022-11-03T20:59:24.917Z,75489.44
2022-11-03T21:09:33.783Z,75499.56
2022-11-03T21:19:57.821Z,75507.66
2022-11-03T21:30:00.365Z,75503.63
2022-11-03T21:40:05.106Z,75499.56
2022-11-03T21:50:09.873Z,75491.47
2022-11-03T22:00:14.689Z,75475.28
2022-11-03T22:10:16.744Z,75477.31
2022-11-03T22:20:39.861Z,75475.28
2022-11-03T22:31:05.726Z,75459.09
2022-11-03T22:41:28.905Z,75457.06
2022-11-03T22:51:31.048Z,75463.16
2022-11-03T23:01:37.525Z,75471.25
2022-11-03T23:11:43.693Z,75455.06
2022-11-03T23:21:49.567Z,75457.06
2022-11-03T23:31:53.960Z,75471.25
2022-11-03T23:41:55.994Z,75475.28
2022-11-03T23:51:58.806Z,75471.25
